createdAt,value
2019-03-10T00:00:48.318Z,7.30
2019-03-10T00:03:56.729Z,7.20
2019-03-10T00:06:31.123Z,7.30
2019-03-10T00:09:39.333Z,7.20
2019-03-10T00:12:44.162Z,7.20
2019-03-10T00:15:18.674Z,7.30
2019-03-10T00:18:01.671Z,7.30
2019-03-10T00:21:19.342Z,7.30
2019-03-10T00:24:00.696Z,7.30
2019-03-10T00:26:59.180Z,7.30
2019-03-10T00:29:31.745Z,7.30
2019-03-10T00:32:09.861Z,7.30
2019-03-10T00:34:46.608Z,7.30
2019-03-10T00:37:36.246Z,7.30
2019-03-10T00:40:40.786Z,7.30
2019-03-10T00:43:56.057Z,7.30
2019-03-10T00:47:29.305Z,7.30
2019-03-10T00:50:59.732Z,7.40
2019-03-10T00:53:32.934Z,7.40
2019-03-10T00:56:02.793Z,7.30
2019-03-10T00:58:32.625Z,7.30
2019-03-10T01:01:05.226Z,7.40
2019-03-10T01:03:49.250Z,7.40
2019-03-10T01:06:27.117Z,7.30
2019-03-10T01:09:00.245Z,7.30
2019-03-10T01:11:33.299Z,7.40
2019-03-10T01:14:03.139Z,7.40
2019-03-10T01:16:40.121Z,7.40
2019-03-10T01:19:44.556Z,7.40
2019-03-10T01:22:21.601Z,7.40
2019-03-10T01:24:58.818Z,7.40
2019-03-10T01:27:31.795Z,7.40
2019-03-10T01:30:13.819Z,7.40
2019-03-10T01:33:00.794Z,7.40
2019-03-10T01:35:38.955Z,7.40
2019-03-10T01:38:11.924Z,7.40
2019-03-10T01:40:47.968Z,7.40
2019-03-10T01:43:26.813Z,7.40
2019-03-10T01:46:32.964Z,7.40
2019-03-10T01:49:02.769Z,7.40
2019-03-10T01:51:32.622Z,7.40
2019-03-10T01:54:08.082Z,7.40
2019-03-10T01:56:43.255Z,7.40
2019-03-10T01:59:21.113Z,7.40
2019-03-10T02:01:59.402Z,7.40
2019-03-10T02:04:32.512Z,7.40
2019-03-10T02:07:03.763Z,7.40
2019-03-10T02:09:33.863Z,7.40
2019-03-10T02:12:11.840Z,7.40
2019-03-10T02:14:45.344Z,7.40
2019-03-10T02:17:20.644Z,7.40
2019-03-10T02:19:59.070Z,7.40
2019-03-10T02:22:31.823Z,7.40
2019-03-10T02:25:01.627Z,7.40
2019-03-10T02:27:32.886Z,7.40
2019-03-10T02:30:09.724Z,7.40
2019-03-10T02:32:39.716Z,7.40
2019-03-10T02:35:27.031Z,7.40
2019-03-10T02:38:01.126Z,7.30
2019-03-10T02:40:31.221Z,7.30
2019-03-10T02:43:12.990Z,7.30
2019-03-10T02:45:57.941Z,7.40
2019-03-10T02:48:34.133Z,7.30
2019-03-10T02:51:14.631Z,7.30
2019-03-10T02:54:06.472Z,7.30
2019-03-10T02:56:36.797Z,7.40
2019-03-10T02:59:42.776Z,7.30
2019-03-10T03:02:35.934Z,7.30
2019-03-10T03:05:32.908Z,7.30
2019-03-10T03:08:16.730Z,7.30
2019-03-10T03:11:37.920Z,7.30
2019-03-10T03:14:39.723Z,7.30
2019-03-10T03:17:27.082Z,7.30
2019-03-10T03:20:14.094Z,7.20
2019-03-10T03:22:57.297Z,7.30
2019-03-10T03:25:33.456Z,7.20
2019-03-10T03:28:30.324Z,7.20
2019-03-10T03:31:26.114Z,7.20
2019-03-10T03:34:29.587Z,7.20
2019-03-10T03:37:29.262Z,7.20
2019-03-10T03:40:33.506Z,7.20
2019-03-10T03:43:41.951Z,7.10
2019-03-10T03:46:33.654Z,7.10
2019-03-10T04:05:34.810Z,7.00
2019-03-10T04:12:01.599Z,6.90
2019-03-10T06:50:42.186Z,5.60
2019-03-10T07:08:50.415Z,5.60
2019-03-10T07:11:20.297Z,5.60
2019-03-10T07:13:49.978Z,5.60
2019-03-10T07:16:41.921Z,5.60
2019-03-10T07:19:11.098Z,5.60
2019-03-10T07:21:50.848Z,5.60
2019-03-10T07:24:26.215Z,5.60
2019-03-10T07:27:13.429Z,5.60
2019-03-10T07:30:06.612Z,5.60
2019-03-10T07:32:54.935Z,5.70
2019-03-10T07:35:36.170Z,5.70
2019-03-10T07:41:42.481Z,5.70
2019-03-10T07:44:54.970Z,5.80
2019-03-10T07:47:52.621Z,5.80
2019-03-10T07:50:37.386Z,5.80
2019-03-10T07:56:17.497Z,5.90
2019-03-10T07:59:08.609Z,6.00
2019-03-10T08:02:38.342Z,6.00
2019-03-10T08:09:10.162Z,6.10
2019-03-10T08:12:16.452Z,6.10
2019-03-10T08:15:00.379Z,6.10
2019-03-10T08:17:41.961Z,6.10
2019-03-10T08:20:29.187Z,6.10
2019-03-10T08:23:41.678Z,6.20
2019-03-10T08:26:26.954Z,6.30
2019-03-10T08:29:31.124Z,6.30
2019-03-10T08:32:22.201Z,6.40
2019-03-10T08:35:22.954Z,6.40
2019-03-10T08:38:11.646Z,6.60
2019-03-10T08:40:58.741Z,6.70
2019-03-10T08:43:42.934Z,6.80
2019-03-10T08:46:46.318Z,6.90
2019-03-10T08:49:22.816Z,7.10
2019-03-10T08:52:08.600Z,7.30
2019-03-10T08:55:02.941Z,7.40
2019-03-10T08:57:50.275Z,7.60
2019-03-10T09:00:48.938Z,7.70
2019-03-10T09:03:37.556Z,7.80
2019-03-10T09:06:24.719Z,8.00
2019-03-10T09:09:22.160Z,8.20
2019-03-10T09:12:19.493Z,8.40
2019-03-10T09:15:53.298Z,8.60
2019-03-10T09:19:34.095Z,8.80
2019-03-10T09:26:19.647Z,9.00
2019-03-10T09:29:18.956Z,9.10
2019-03-10T09:32:20.135Z,9.20
2019-03-10T09:35:00.823Z,9.30
2019-03-10T09:37:52.226Z,9.30
2019-03-10T09:40:55.806Z,9.30
2019-03-10T09:43:55.851Z,9.40
2019-03-10T09:49:50.530Z,9.50
2019-03-10T09:52:29.382Z,9.50
2019-03-10T09:55:18.278Z,9.50
2019-03-10T09:58:15.331Z,9.50
2019-03-10T10:01:02.173Z,9.50
2019-03-10T10:03:49.444Z,9.50
2019-03-10T10:07:29.392Z,9.60
2019-03-10T10:10:48.389Z,9.60
2019-03-10T10:13:43.090Z,9.60
2019-03-10T10:16:33.545Z,9.50
2019-03-10T10:42:05.623Z,10.40
2019-03-10T10:53:16.934Z,10.40
2019-03-10T10:59:50.927Z,10.40
2019-03-10T11:35:42.858Z,10.70
2019-03-10T12:08:30.782Z,10.00
2019-03-10T12:11:00.158Z,9.90
2019-03-10T12:13:41.934Z,9.90
2019-03-10T12:16:18.868Z,10.00
2019-03-10T12:19:06.691Z,10.10
2019-03-10T12:21:44.637Z,10.00
2019-03-10T12:24:28.542Z,10.00
2019-03-10T12:27:02.694Z,10.00
2019-03-10T12:29:36.498Z,10.00
2019-03-10T12:32:13.504Z,10.00
2019-03-10T12:37:34.585Z,9.90
2019-03-10T12:43:50.138Z,9.90
2019-03-10T12:46:24.613Z,9.80
2019-03-10T12:48:58.032Z,9.70
2019-03-10T12:51:36.331Z,9.70
2019-03-10T12:54:09.050Z,9.60
2019-03-10T12:56:40.708Z,9.60
2019-03-10T12:59:12.037Z,9.60
2019-03-10T13:01:42.074Z,9.50
2019-03-10T13:04:14.884Z,9.50
2019-03-10T13:10:24.346Z,9.40
2019-03-10T13:12:59.180Z,9.40
2019-03-10T13:19:15.403Z,9.30
2019-03-10T13:21:45.152Z,9.30
2019-03-10T13:24:53.987Z,9.40
2019-03-10T13:27:33.393Z,9.40
2019-03-10T13:30:03.517Z,9.60
2019-03-10T13:32:33.168Z,9.70
2019-03-10T13:35:05.950Z,9.70
2019-03-10T13:37:35.465Z,9.80
2019-03-10T13:40:05.278Z,9.80
2019-03-10T13:42:37.655Z,9.90
2019-03-10T13:48:47.485Z,9.90
2019-03-10T13:51:20.009Z,9.90
2019-03-10T13:53:50.669Z,9.90
2019-03-10T13:56:35.463Z,9.90
2019-03-10T13:59:10.978Z,9.80
2019-03-10T14:01:42.503Z,9.70
2019-03-10T14:04:13.356Z,9.60
2019-03-10T14:06:49.757Z,9.60
2019-03-10T14:09:33.332Z,9.50
2019-03-10T14:16:11.416Z,9.50
2019-03-10T14:18:51.803Z,9.50
2019-03-10T14:21:36.031Z,9.60
2019-03-10T14:24:10.744Z,9.60
2019-03-10T14:26:40.270Z,9.60
2019-03-10T14:29:27.797Z,9.60
2019-03-10T14:31:59.221Z,9.70
2019-03-10T14:34:33.599Z,9.70
2019-03-10T14:37:05.025Z,9.60
2019-03-10T14:39:57.151Z,9.70
2019-03-10T14:42:32.338Z,9.70
2019-03-10T14:45:29.000Z,9.80
2019-03-10T14:48:01.819Z,9.80
2019-03-10T14:51:01.887Z,9.80
2019-03-10T14:57:11.856Z,9.70
2019-03-10T14:59:41.246Z,9.60
2019-03-10T15:02:21.204Z,9.50
2019-03-10T15:04:48.450Z,9.40
2019-03-10T15:07:18.896Z,9.30
2019-03-10T15:09:48.464Z,9.30
2019-03-10T15:15:58.446Z,9.30
2019-03-10T15:18:28.283Z,9.20
2019-03-10T15:20:57.860Z,9.20
2019-03-10T15:23:27.485Z,9.10
2019-03-10T15:25:59.793Z,9.10
2019-03-10T15:28:30.083Z,9.00
2019-03-10T15:35:04.516Z,8.90
2019-03-10T15:37:34.323Z,8.90
2019-03-10T15:40:24.559Z,8.90
2019-03-10T15:43:18.196Z,8.80
2019-03-10T15:52:17.153Z,8.60
2019-03-10T15:59:20.478Z,8.50
2019-03-10T16:01:51.326Z,8.30
2019-03-10T16:04:23.472Z,8.20
2019-03-10T16:10:41.797Z,8.10
2019-03-10T16:24:10.047Z,7.90
2019-03-10T16:26:41.216Z,7.80
2019-03-10T16:29:29.181Z,7.80
2019-03-10T16:32:30.151Z,7.70
2019-03-10T16:35:39.903Z,7.60
2019-03-10T16:38:11.516Z,7.60
2019-03-10T16:54:03.694Z,7.20
2019-03-10T16:56:33.786Z,7.00
2019-03-10T16:59:03.316Z,6.80
2019-03-10T17:01:40.677Z,6.70
2019-03-10T17:08:11.255Z,6.50
2019-03-10T17:16:41.826Z,6.20
2019-03-10T17:19:29.698Z,6.10
2019-03-10T17:22:26.721Z,6.10
2019-03-10T17:25:01.658Z,6.10
2019-03-10T17:32:33.335Z,6.00
2019-03-10T17:41:41.901Z,5.90
2019-03-10T17:44:18.796Z,5.90
2019-03-10T17:46:58.130Z,5.90
2019-03-10T17:49:29.072Z,5.90
2019-03-10T17:52:14.486Z,5.80
2019-03-10T17:59:02.537Z,5.70
2019-03-10T18:01:53.244Z,5.70
2019-03-10T18:04:30.867Z,5.70
2019-03-10T18:07:07.473Z,5.70
2019-03-10T18:13:15.659Z,5.70
2019-03-10T18:15:47.874Z,5.60
2019-03-10T18:18:17.146Z,5.60
2019-03-10T18:20:46.920Z,5.60
2019-03-10T18:23:32.977Z,5.70
2019-03-10T18:26:02.359Z,5.60
2019-03-10T18:28:37.348Z,5.70
2019-03-10T18:31:06.768Z,5.70
2019-03-10T18:33:36.225Z,5.70
2019-03-10T18:36:11.639Z,5.70
2019-03-10T18:38:43.227Z,5.70
2019-03-10T18:41:12.751Z,5.70
2019-03-10T18:43:42.191Z,5.70
2019-03-10T18:46:11.515Z,5.70
2019-03-10T18:48:42.223Z,5.70
2019-03-10T18:51:14.543Z,5.70
2019-03-10T18:54:34.526Z,5.70
2019-03-10T18:57:05.158Z,5.70
2019-03-10T19:03:14.713Z,5.70
2019-03-10T19:05:46.254Z,5.70
2019-03-10T19:08:15.969Z,5.60
2019-03-10T19:10:54.722Z,5.60
2019-03-10T19:13:24.186Z,5.60
2019-03-10T19:16:11.010Z,5.60
2019-03-10T19:18:43.706Z,5.60
2019-03-10T19:21:21.282Z,5.60
2019-03-10T19:23:51.257Z,5.60
2019-03-10T19:26:20.760Z,5.60
2019-03-10T19:28:51.890Z,5.50
2019-03-10T19:31:21.264Z,5.50
2019-03-10T19:33:55.887Z,5.50
2019-03-10T19:36:25.304Z,5.50
2019-03-10T19:39:07.417Z,5.50
2019-03-10T19:42:16.298Z,5.40
2019-03-10T19:45:22.634Z,5.40
2019-03-10T19:47:52.828Z,5.40
2019-03-10T19:54:03.394Z,5.30
2019-03-10T19:56:54.480Z,5.30
2019-03-10T19:59:58.522Z,5.30
2019-03-10T20:06:18.427Z,5.30
2019-03-10T20:09:07.805Z,5.30
2019-03-10T20:11:38.766Z,5.20
2019-03-10T20:14:08.308Z,5.20
2019-03-10T20:16:40.755Z,5.20
2019-03-10T20:19:20.514Z,5.20
2019-03-10T20:21:55.833Z,5.20
2019-03-10T20:24:27.294Z,5.20
2019-03-10T20:27:39.412Z,5.10
2019-03-10T20:30:11.529Z,5.10
2019-03-10T20:32:47.647Z,5.10
2019-03-10T20:36:28.796Z,5.10
2019-03-10T20:39:00.821Z,5.00
2019-03-10T20:41:30.357Z,4.70
2019-03-10T20:47:43.002Z,4.20
2019-03-10T20:50:25.788Z,4.00
2019-03-10T20:53:07.929Z,3.80
2019-03-10T20:59:22.085Z,3.50
2019-03-10T21:02:29.442Z,3.30
2019-03-10T21:05:00.808Z,3.30
2019-03-10T21:07:30.356Z,3.30
2019-03-10T21:09:59.757Z,3.30
2019-03-10T21:12:47.371Z,3.30
2019-03-10T21:15:17.772Z,3.20
2019-03-10T21:17:47.138Z,3.20
2019-03-10T21:23:56.286Z,3.20
2019-03-10T21:26:26.235Z,3.20
2019-03-10T21:29:33.901Z,3.20
2019-03-10T21:32:06.107Z,3.20
2019-03-10T21:34:41.522Z,3.20
2019-03-10T21:37:10.752Z,3.20
2019-03-10T21:39:40.381Z,3.20
2019-03-10T21:42:09.663Z,3.20
2019-03-10T21:44:40.256Z,3.20
2019-03-10T21:47:09.806Z,3.10
2019-03-10T21:49:47.204Z,3.10
2019-03-10T21:52:18.917Z,3.10
2019-03-10T21:54:47.477Z,3.10
2019-03-10T21:57:16.582Z,3.10
2019-03-10T21:59:45.876Z,3.10
2019-03-10T22:02:15.490Z,3.10
2019-03-10T22:04:44.712Z,3.10
2019-03-10T22:07:13.971Z,3.20
2019-03-10T22:09:43.474Z,3.10
2019-03-10T22:12:13.077Z,3.10
2019-03-10T22:14:43.049Z,3.10
2019-03-10T22:17:12.649Z,3.10
2019-03-10T22:19:42.009Z,3.10
2019-03-10T22:22:11.418Z,3.00
2019-03-10T22:24:40.775Z,3.00
2019-03-10T22:27:16.972Z,3.00
2019-03-10T22:29:43.897Z,3.00
2019-03-10T22:32:13.707Z,3.00
2019-03-10T22:34:43.177Z,3.00
2019-03-10T22:37:12.529Z,2.90
2019-03-10T22:40:14.122Z,3.00
2019-03-10T22:42:43.626Z,2.90
2019-03-10T22:45:13.154Z,2.90
2019-03-10T22:47:42.423Z,2.90
2019-03-10T22:50:14.285Z,2.90
2019-03-10T22:52:43.570Z,2.90
2019-03-10T22:55:14.435Z,2.80
2019-03-10T22:57:43.697Z,2.80
2019-03-10T23:00:17.634Z,2.80
2019-03-10T23:02:49.801Z,2.70
2019-03-10T23:05:19.219Z,2.70
2019-03-10T23:07:48.564Z,2.70
2019-03-10T23:10:18.065Z,2.70
2019-03-10T23:12:47.878Z,2.70
2019-03-10T23:15:17.304Z,2.70
2019-03-10T23:17:46.934Z,2.70
2019-03-10T23:20:16.372Z,2.70
2019-03-10T23:26:18.474Z,2.70
2019-03-10T23:28:48.123Z,2.70
2019-03-10T23:31:20.575Z,2.70
2019-03-10T23:33:50.256Z,2.80
2019-03-10T23:36:33.575Z,2.80
2019-03-10T23:39:02.978Z,2.80
2019-03-10T23:41:32.935Z,2.80
2019-03-10T23:44:02.278Z,2.80
2019-03-10T23:46:31.772Z,2.90
2019-03-10T23:49:01.213Z,2.90
2019-03-10T23:51:30.799Z,2.90
2019-03-10T23:56:35.131Z,2.90
2019-03-10T23:59:10.640Z,2.90
